Time;durP1;ratioP1;P1;durP2;ratioP2;P2;SDS_P1;SDS_P2;PMS_P1;PMS_P2;Temp;Humidity;BMP_temperature;BMP_pressure;BME280_temperature;BME280_humidity;BME280_pressure;Samples;Min_cycle;Max_cycle;Signal;HPM_P1;HPM_P2
2021/05/20 00:00:31;;;;;;;0.60;0.60;;;12.80;99.90;;;;;;5025691;28;20468;-81
2021/05/20 00:02:59;;;;;;;0.60;0.60;;;12.90;99.90;;;;;;5056507;28;21008;-78
2021/05/20 00:05:28;;;;;;;0.80;0.80;;;13.00;99.90;;;;;;5025571;28;20456;-77
2021/05/20 00:07:55;;;;;;;0.70;0.70;;;13.00;99.90;;;;;;5024928;28;20522;-77
2021/05/20 00:10:23;;;;;;;1.60;0.63;;;13.00;99.90;;;;;;5025723;28;20957;-79
2021/05/20 00:12:51;;;;;;;1.27;0.70;;;13.00;99.90;;;;;;5023744;28;20496;-77
2021/05/20 00:15:19;;;;;;;0.73;0.73;;;13.00;99.90;;;;;;5023469;28;20562;-79
2021/05/20 00:17:46;;;;;;;1.27;0.70;;;13.10;99.90;;;;;;5022223;28;20465;-79
2021/05/20 00:20:15;;;;;;;0.67;0.67;;;13.10;99.90;;;;;;5022653;28;20861;-78
2021/05/20 00:22:44;;;;;;;2.00;0.53;;;13.20;99.90;;;;;;5025892;28;20477;-78
2021/05/20 00:25:12;;;;;;;0.70;0.70;;;13.00;99.90;;;;;;5024136;28;20449;-76
2021/05/20 00:27:40;;;;;;;0.70;0.63;;;12.90;99.90;;;;;;5020668;28;20470;-79
2021/05/20 00:30:10;;;;;;;0.50;0.50;;;12.80;99.90;;;;;;5025718;28;20467;-78
2021/05/20 00:32:38;;;;;;;0.70;0.70;;;12.60;99.90;;;;;;5023915;28;20492;-78
2021/05/20 00:35:07;;;;;;;0.70;0.60;;;12.70;99.90;;;;;;5024401;28;20538;-78
2021/05/20 00:37:35;;;;;;;0.97;0.60;;;12.70;99.90;;;;;;5018294;28;20449;-79
2021/05/20 00:40:05;;;;;;;0.93;0.80;;;12.60;99.90;;;;;;5039058;28;20474;-78
2021/05/20 00:42:33;;;;;;;3.10;0.73;;;12.50;99.90;;;;;;5026095;28;20484;-77
2021/05/20 00:45:01;;;;;;;1.67;0.70;;;12.60;99.90;;;;;;5023559;28;20441;-79
2021/05/20 00:47:32;;;;;;;0.70;0.70;;;12.70;99.90;;;;;;5039334;28;20544;-77
2021/05/20 00:50:01;;;;;;;4.60;0.80;;;12.90;99.90;;;;;;5054051;28;20541;-80
2021/05/20 00:52:29;;;;;;;0.70;0.67;;;12.90;99.90;;;;;;5025448;28;20526;-77
2021/05/20 00:54:59;;;;;;;1.07;0.70;;;12.70;99.90;;;;;;5025666;28;20539;-78
2021/05/20 00:57:28;;;;;;;0.70;0.70;;;12.80;99.90;;;;;;5023481;28;20451;-78
2021/05/20 01:00:04;;;;;;;0.70;0.70;;;12.90;99.90;;;;;;5022974;28;20449;-80
2021/05/20 01:02:31;;;;;;;1.70;0.80;;;13.00;99.90;;;;;;5022670;28;20484;-80
2021/05/20 01:05:00;;;;;;;1.23;0.70;;;13.00;99.90;;;;;;5022506;28;20497;-80
2021/05/20 01:07:27;;;;;;;1.07;0.60;;;13.10;99.90;;;;;;5022449;28;21022;-77
2021/05/20 01:09:55;;;;;;;0.60;0.60;;;13.00;99.90;;;;;;5024760;28;20449;-78
2021/05/20 01:12:23;;;;;;;0.70;0.60;;;13.00;99.90;;;;;;5025514;28;20505;-79
2021/05/20 01:14:52;;;;;;;0.70;0.70;;;13.00;99.90;;;;;;5055031;28;20479;-77
2021/05/20 01:17:20;;;;;;;1.03;0.67;;;13.00;99.90;;;;;;5020968;28;20462;-78
2021/05/20 01:19:48;;;;;;;0.80;0.70;;;12.90;99.90;;;;;;5021059;28;20457;-77
2021/05/20 01:22:17;;;;;;;1.53;1.27;;;12.90;99.90;;;;;;5022076;28;20480;-81
2021/05/20 01:24:45;;;;;;;1.27;0.70;;;12.90;99.90;;;;;;5021278;28;20456;-76
2021/05/20 01:27:15;;;;;;;1.00;0.70;;;12.80;99.90;;;;;;5023027;28;20466;-79
2021/05/20 01:29:44;;;;;;;0.63;0.63;;;12.80;99.90;;;;;;5022575;28;20467;-77
2021/05/20 01:32:12;;;;;;;0.87;0.80;;;12.60;99.90;;;;;;5023975;28;20490;-77
2021/05/20 01:34:39;;;;;;;0.90;0.90;;;12.50;99.90;;;;;;5022586;28;20480;-79
2021/05/20 01:37:09;;;;;;;0.70;0.70;;;12.50;99.90;;;;;;5055756;28;20513;-79
2021/05/20 01:39:38;;;;;;;1.10;0.70;;;12.50;99.90;;;;;;5016992;28;20983;-80
2021/05/20 01:42:06;;;;;;;0.70;0.70;;;12.60;99.90;;;;;;5020561;28;20517;-79
2021/05/20 01:44:34;;;;;;;2.30;0.80;;;12.50;99.90;;;;;;5022536;28;20486;-79
2021/05/20 01:47:02;;;;;;;0.80;0.80;;;12.40;99.90;;;;;;5021994;28;20468;-80
2021/05/20 01:49:30;;;;;;;0.70;0.70;;;12.50;99.90;;;;;;5023112;28;20462;-80
2021/05/20 01:51:57;;;;;;;1.73;0.80;;;12.40;99.90;;;;;;5024598;28;20472;-79
2021/05/20 01:54:25;;;;;;;1.03;0.80;;;12.40;99.90;;;;;;5022759;28;21022;-79
2021/05/20 01:56:53;;;;;;;1.47;0.60;;;12.40;99.90;;;;;;5022200;28;20495;-78
2021/05/20 01:59:21;;;;;;;0.70;0.70;;;12.40;99.90;;;;;;5020516;28;20878;-78
2021/05/20 02:01:49;;;;;;;3.40;1.53;;;12.40;99.90;;;;;;5024201;28;20482;-79
2021/05/20 02:04:16;;;;;;;0.70;0.60;;;12.40;99.90;;;;;;5020345;28;20453;-79
2021/05/20 02:06:44;;;;;;;0.53;0.53;;;12.50;99.90;;;;;;5024341;28;20526;-79
2021/05/20 02:09:12;;;;;;;0.70;0.60;;;12.40;99.90;;;;;;5054357;28;20594;-79
2021/05/20 02:11:39;;;;;;;0.60;0.60;;;12.50;99.90;;;;;;5021860;28;21022;-78
2021/05/20 02:14:08;;;;;;;1.03;0.70;;;12.20;99.90;;;;;;5020790;28;20474;-78
2021/05/20 02:16:35;;;;;;;0.90;0.60;;;12.00;99.90;;;;;;5024216;28;20457;-79
2021/05/20 02:19:03;;;;;;;0.70;0.70;;;12.10;99.90;;;;;;5021337;28;20502;-78
2021/05/20 02:21:31;;;;;;;0.70;0.70;;;11.80;99.90;;;;;;5023707;28;20498;-78
2021/05/20 02:23:59;;;;;;;1.00;0.70;;;11.80;99.90;;;;;;5024984;28;20469;-80
2021/05/20 02:26:27;;;;;;;1.40;0.60;;;12.00;99.90;;;;;;5018407;28;20459;-79
2021/05/20 02:28:54;;;;;;;1.50;0.70;;;11.90;99.90;;;;;;5019607;28;20869;-79
2021/05/20 02:31:23;;;;;;;0.83;0.70;;;11.80;99.90;;;;;;5020322;28;20462;-79
2021/05/20 02:33:50;;;;;;;0.70;0.70;;;11.70;99.90;;;;;;5021660;28;20522;-79
2021/05/20 02:36:18;;;;;;;0.80;0.70;;;11.60;99.90;;;;;;5021573;28;20615;-78
2021/05/20 02:38:46;;;;;;;0.80;0.80;;;11.70;99.90;;;;;;5019557;28;20457;-79
2021/05/20 02:41:13;;;;;;;1.63;0.70;;;11.70;99.90;;;;;;5040736;28;20492;-77
2021/05/20 02:43:41;;;;;;;0.70;0.70;;;11.90;99.90;;;;;;5055755;28;21100;-78
2021/05/20 02:46:09;;;;;;;1.47;0.80;;;11.70;99.90;;;;;;5023753;28;20463;-78
2021/05/20 02:48:38;;;;;;;1.00;0.80;;;11.70;99.90;;;;;;5022644;28;20458;-78
2021/05/20 02:51:06;;;;;;;1.53;0.70;;;11.70;99.90;;;;;;5017376;28;20468;-78
2021/05/20 02:53:33;;;;;;;0.60;0.60;;;11.90;99.90;;;;;;5023133;28;20479;-76
2021/05/20 02:56:01;;;;;;;0.80;0.80;;;12.00;99.90;;;;;;5021721;28;22291;-79
2021/05/20 02:58:28;;;;;;;1.07;0.70;;;12.00;99.90;;;;;;5019269;28;20464;-77
2021/05/20 03:00:56;;;;;;;1.20;0.73;;;12.00;99.90;;;;;;5026672;28;20462;-78
2021/05/20 03:03:24;;;;;;;0.80;0.80;;;12.00;99.90;;;;;;5023280;28;20990;-79
2021/05/20 03:05:54;;;;;;;1.17;0.73;;;11.90;99.90;;;;;;5025787;28;20468;-79
2021/05/20 03:08:21;;;;;;;0.80;0.67;;;11.70;99.90;;;;;;5023532;28;20452;-78
2021/05/20 03:10:49;;;;;;;1.97;1.10;;;11.80;99.90;;;;;;5026613;28;20845;-78
2021/05/20 03:13:17;;;;;;;0.70;0.70;;;11.90;99.90;;;;;;5025697;28;20846;-76
2021/05/20 03:15:44;;;;;;;0.73;0.73;;;11.80;99.90;;;;;;5024449;28;21224;-79
2021/05/20 03:18:12;;;;;;;0.60;0.60;;;11.50;99.90;;;;;;5026665;28;20990;-79
2021/05/20 03:20:39;;;;;;;1.00;0.90;;;11.40;1.00;;;;;;5024917;28;20477;-79
2021/05/20 03:23:08;;;;;;;0.70;0.70;;;11.60;1.00;;;;;;5057699;28;20488;-80
2021/05/20 03:25:36;;;;;;;2.77;0.70;;;11.60;1.00;;;;;;5022096;28;20463;-78
2021/05/20 03:28:04;;;;;;;1.27;0.77;;;11.70;1.00;;;;;;5026610;28;20529;-80
2021/05/20 03:30:31;;;;;;;1.07;0.63;;;11.80;1.00;;;;;;5026370;28;20454;-79
2021/05/20 03:32:59;;;;;;;1.80;0.70;;;11.80;1.00;;;;;;5023026;28;20494;-79
2021/05/20 03:35:27;;;;;;;0.60;0.60;;;11.90;1.00;;;;;;5026509;28;20477;-78
2021/05/20 03:37:55;;;;;;;0.70;0.70;;;11.90;1.00;;;;;;5023554;28;20558;-78
2021/05/20 03:40:24;;;;;;;0.70;0.70;;;11.90;1.00;;;;;;5026774;28;20464;-78
2021/05/20 03:42:54;;;;;;;1.00;0.70;;;11.80;1.00;;;;;;5021520;28;21045;-78
2021/05/20 03:45:21;;;;;;;0.97;0.50;;;11.80;1.00;;;;;;5023637;28;20528;-78
2021/05/20 03:47:49;;;;;;;1.17;0.60;;;11.90;1.00;;;;;;5022275;28;20460;-81
2021/05/20 03:50:16;;;;;;;0.77;0.60;;;11.80;1.00;;;;;;5053242;28;20474;-79
2021/05/20 03:52:44;;;;;;;1.00;0.67;;;11.80;99.90;;;;;;5025428;28;20513;-78
2021/05/20 03:55:12;;;;;;;1.00;0.63;;;11.70;99.90;;;;;;5019662;28;20508;-78
2021/05/20 03:57:40;;;;;;;1.10;0.63;;;11.70;99.90;;;;;;5024314;28;20462;-78
2021/05/20 04:00:09;;;;;;;0.73;0.60;;;11.70;1.00;;;;;;5021703;28;20475;-78
2021/05/20 04:02:37;;;;;;;1.77;0.70;;;11.80;99.90;;;;;;5024714;28;20468;-79
2021/05/20 04:05:05;;;;;;;1.30;0.70;;;11.90;99.90;;;;;;5029555;28;20463;-78
2021/05/20 04:07:33;;;;;;;1.47;0.80;;;11.90;99.90;;;;;;5026217;28;20454;-77
2021/05/20 04:10:00;;;;;;;0.87;0.73;;;12.10;1.00;;;;;;5028164;28;20458;-80
2021/05/20 04:12:28;;;;;;;0.87;0.80;;;11.90;1.00;;;;;;5029692;28;20479;-77
2021/05/20 04:14:56;;;;;;;3.30;0.80;;;11.90;1.00;;;;;;5028215;28;20980;-79
2021/05/20 04:17:24;;;;;;;0.70;0.60;;;12.00;1.00;;;;;;5028934;28;20972;-77
2021/05/20 04:19:53;;;;;;;1.23;0.70;;;11.90;1.00;;;;;;5027576;28;20661;-78
2021/05/20 04:22:20;;;;;;;0.70;0.70;;;12.00;1.00;;;;;;5059525;28;20576;-77
2021/05/20 04:24:48;;;;;;;0.70;0.57;;;12.10;1.00;;;;;;5025739;28;20556;-78
2021/05/20 04:27:16;;;;;;;1.47;0.90;;;12.10;1.00;;;;;;5030046;28;20444;-77
2021/05/20 04:29:43;;;;;;;2.27;1.20;;;12.20;1.00;;;;;;5026974;28;20948;-77
2021/05/20 04:32:12;;;;;;;0.87;0.87;;;12.20;1.00;;;;;;5027879;28;20584;-78
2021/05/20 04:34:39;;;;;;;0.90;0.60;;;12.20;99.90;;;;;;5058679;28;20827;-78
2021/05/20 04:37:08;;;;;;;1.37;0.80;;;12.10;1.00;;;;;;5027832;28;20449;-79
2021/05/20 04:39:36;;;;;;;0.70;0.70;;;12.10;1.00;;;;;;5026429;28;20459;-77
2021/05/20 04:42:04;;;;;;;1.63;0.80;;;12.00;1.00;;;;;;5029632;28;20479;-80
2021/05/20 04:44:32;;;;;;;0.63;0.60;;;11.90;1.00;;;;;;5030622;28;20848;-78
2021/05/20 04:47:00;;;;;;;0.60;0.60;;;11.90;1.00;;;;;;5029074;28;20458;-78
2021/05/20 04:49:28;;;;;;;1.00;0.90;;;11.90;1.00;;;;;;5030637;28;20513;-79
2021/05/20 04:51:56;;;;;;;0.63;0.63;;;11.90;1.00;;;;;;5028221;28;20570;-79
2021/05/20 04:54:23;;;;;;;0.70;0.70;;;11.80;1.00;;;;;;5027295;28;20850;-79
2021/05/20 04:56:51;;;;;;;0.80;0.80;;;11.70;1.00;;;;;;5059499;28;20465;-77
2021/05/20 04:59:19;;;;;;;0.80;0.80;;;11.80;1.00;;;;;;5029515;28;20464;-79
2021/05/20 05:01:46;;;;;;;4.43;0.90;;;11.80;1.00;;;;;;5029621;28;20459;-76
2021/05/20 05:04:14;;;;;;;1.43;0.80;;;11.80;1.00;;;;;;5030809;28;20460;-78
2021/05/20 05:06:42;;;;;;;1.87;1.10;;;11.80;1.00;;;;;;5059091;28;20828;-79
2021/05/20 05:09:10;;;;;;;0.70;0.70;;;11.90;1.00;;;;;;5026036;28;20578;-77
2021/05/20 05:11:38;;;;;;;0.60;0.60;;;11.90;1.00;;;;;;5025765;28;20523;-78
2021/05/20 05:14:05;;;;;;;0.77;0.77;;;11.70;1.00;;;;;;5024025;28;20511;-77
2021/05/20 05:16:33;;;;;;;0.83;0.80;;;11.80;1.00;;;;;;5025435;28;20480;-79
2021/05/20 05:19:00;;;;;;;0.90;0.70;;;11.90;1.00;;;;;;5025810;28;20537;-78
2021/05/20 05:21:28;;;;;;;0.70;0.67;;;11.90;1.00;;;;;;5026295;28;20487;-75
2021/05/20 05:23:57;;;;;;;1.20;1.00;;;11.90;1.00;;;;;;5042061;28;20856;-77
2021/05/20 05:26:24;;;;;;;0.80;0.80;;;12.00;1.00;;;;;;5024655;28;20503;-79
2021/05/20 05:28:53;;;;;;;0.70;0.70;;;12.10;1.00;;;;;;5025664;28;20544;-76
2021/05/20 05:31:23;;;;;;;0.90;0.90;;;12.10;1.00;;;;;;5022956;28;20455;-78
2021/05/20 05:33:51;;;;;;;0.80;0.80;;;12.10;1.00;;;;;;5026994;28;20484;-77
2021/05/20 05:36:20;;;;;;;1.17;0.60;;;12.20;1.00;;;;;;5024809;28;20480;-77
2021/05/20 05:38:48;;;;;;;0.90;0.70;;;12.30;1.00;;;;;;5025013;28;20452;-78
2021/05/20 05:41:16;;;;;;;0.70;0.70;;;12.40;1.00;;;;;;5024839;28;20457;-76
2021/05/20 05:43:44;;;;;;;2.10;0.63;;;12.50;1.00;;;;;;5025154;28;20907;-76
2021/05/20 05:46:12;;;;;;;0.60;0.60;;;12.40;1.00;;;;;;5025298;28;20465;-77
2021/05/20 05:48:40;;;;;;;0.80;0.80;;;12.50;1.00;;;;;;5024443;28;21192;-77
2021/05/20 05:51:11;;;;;;;1.03;0.63;;;12.50;1.00;;;;;;5029902;28;20489;-78
2021/05/20 05:53:39;;;;;;;0.60;0.60;;;12.50;1.00;;;;;;5023911;28;20892;-77
2021/05/20 05:56:07;;;;;;;0.63;0.63;;;12.30;1.00;;;;;;5020707;28;20873;-76
2021/05/20 05:58:35;;;;;;;0.70;0.70;;;12.10;1.00;;;;;;5021918;28;20802;-77
2021/05/20 06:01:04;;;;;;;0.60;0.60;;;12.30;1.00;;;;;;5026603;28;20461;-77
2021/05/20 06:03:33;;;;;;;0.70;0.70;;;12.20;1.00;;;;;;5028076;28;21211;-76
2021/05/20 06:06:01;;;;;;;1.03;0.93;;;12.10;1.00;;;;;;5029750;28;20456;-78
2021/05/20 06:08:29;;;;;;;2.77;0.70;;;12.20;1.00;;;;;;5023577;28;20940;-78
2021/05/20 06:10:56;;;;;;;1.60;0.70;;;12.30;1.00;;;;;;5022029;28;20466;-78
2021/05/20 06:13:24;;;;;;;0.87;0.80;;;12.50;1.00;;;;;;5028050;28;20576;-79
2021/05/20 06:15:52;;;;;;;0.90;0.80;;;12.60;1.00;;;;;;5027618;28;20989;-77
2021/05/20 06:18:20;;;;;;;2.30;1.07;;;12.70;1.00;;;;;;5020250;28;20473;-77
2021/05/20 06:20:49;;;;;;;4.43;2.60;;;12.70;1.00;;;;;;5016999;28;20461;-77
2021/05/20 06:23:17;;;;;;;1.73;0.80;;;12.80;1.00;;;;;;5017614;28;20474;-78
2021/05/20 06:25:46;;;;;;;0.80;0.80;;;13.00;1.00;;;;;;5019883;28;20470;-78
2021/05/20 06:28:13;;;;;;;0.97;0.80;;;12.80;1.00;;;;;;5022571;28;20461;-77
2021/05/20 06:30:41;;;;;;;2.70;0.80;;;12.70;1.00;;;;;;5022235;28;20999;-80
2021/05/20 06:33:09;;;;;;;2.10;1.27;;;12.80;1.00;;;;;;5022340;28;20855;-76
2021/05/20 06:35:37;;;;;;;0.70;0.70;;;12.90;1.00;;;;;;5025981;28;20464;-79
2021/05/20 06:38:05;;;;;;;1.00;1.00;;;13.00;1.00;;;;;;5029797;28;20442;-76
2021/05/20 06:40:32;;;;;;;0.80;0.70;;;13.00;1.00;;;;;;5027024;28;20458;-77
2021/05/20 06:43:00;;;;;;;1.73;0.80;;;13.10;1.00;;;;;;5027320;28;20538;-80
2021/05/20 06:45:27;;;;;;;0.60;0.60;;;13.10;1.00;;;;;;5023037;28;20954;-79
2021/05/20 06:47:55;;;;;;;1.37;0.70;;;13.20;1.00;;;;;;5031748;28;20475;-79
2021/05/20 06:50:24;;;;;;;0.60;0.60;;;13.30;99.90;;;;;;5027101;28;20458;-76
2021/05/20 06:52:54;;;;;;;1.00;0.70;;;13.20;99.90;;;;;;5029780;28;20487;-78
2021/05/20 06:55:22;;;;;;;1.70;0.80;;;13.20;99.90;;;;;;5023287;28;20474;-77
2021/05/20 07:00:37;;;;;;;0.93;0.70;;;13.30;99.90;;;;;;5033615;28;20461;-77
2021/05/20 07:03:06;;;;;;;1.80;0.70;;;13.40;99.90;;;;;;5024710;28;20477;-76
2021/05/20 07:05:34;;;;;;;1.03;1.03;;;13.50;99.90;;;;;;5026681;28;20466;-77
2021/05/20 07:08:03;;;;;;;1.43;0.80;;;13.60;99.90;;;;;;5025066;28;20462;-78
2021/05/20 07:10:31;;;;;;;0.70;0.70;;;14.00;99.90;;;;;;5026567;28;20975;-76
2021/05/20 07:12:59;;;;;;;1.07;0.97;;;14.20;99.90;;;;;;5043207;28;20508;-75
2021/05/20 07:15:29;;;;;;;1.10;1.00;;;14.30;99.90;;;;;;5023747;28;20520;-77
2021/05/20 07:17:57;;;;;;;1.50;0.90;;;14.50;99.90;;;;;;5024462;28;20505;-76
2021/05/20 07:20:25;;;;;;;0.93;0.87;;;14.50;99.90;;;;;;5031355;28;20961;-77
2021/05/20 07:22:54;;;;;;;1.03;0.80;;;14.40;99.90;;;;;;5053322;28;20520;-77
2021/05/20 07:25:22;;;;;;;0.90;0.77;;;14.40;99.90;;;;;;5018576;28;20461;-75
2021/05/20 07:27:50;;;;;;;1.10;0.93;;;14.30;99.90;;;;;;5025016;28;20483;-78
2021/05/20 07:30:18;;;;;;;0.60;0.60;;;14.20;99.90;;;;;;5026024;28;20440;-78
2021/05/20 07:32:45;;;;;;;1.50;0.80;;;14.20;99.90;;;;;;5024018;28;20478;-78
2021/05/20 07:35:13;;;;;;;0.60;0.60;;;14.20;99.90;;;;;;5023043;28;20462;-78
2021/05/20 07:37:41;;;;;;;0.80;0.80;;;14.20;99.90;;;;;;5022923;28;20990;-78
2021/05/20 07:40:11;;;;;;;0.87;0.87;;;14.20;99.90;;;;;;5023292;28;20523;-78
2021/05/20 07:42:40;;;;;;;0.60;0.60;;;14.20;99.90;;;;;;5021349;28;20481;-75
2021/05/20 07:45:10;;;;;;;0.70;0.70;;;14.20;99.90;;;;;;5025199;28;20538;-79
2021/05/20 07:47:38;;;;;;;1.00;0.67;;;14.20;99.90;;;;;;5028933;28;20448;-77
2021/05/20 07:50:07;;;;;;;0.57;0.57;;;14.30;99.90;;;;;;5031707;28;21025;-76
2021/05/20 07:52:35;;;;;;;1.00;0.70;;;14.30;99.90;;;;;;5022119;28;20894;-76
2021/05/20 07:55:04;;;;;;;0.50;0.50;;;14.40;99.90;;;;;;5020744;28;20466;-77
2021/05/20 07:57:33;;;;;;;0.93;0.73;;;14.40;99.90;;;;;;5021410;28;20490;-78
2021/05/20 08:00:00;;;;;;;0.60;0.60;;;14.40;99.90;;;;;;5023876;28;20465;-78
2021/05/20 08:02:34;;;;;;;0.60;0.60;;;14.50;99.90;;;;;;5023049;28;20908;-77
2021/05/20 08:05:06;;;;;;;0.80;0.80;;;14.50;99.90;;;;;;5024521;28;20532;-76
2021/05/20 08:07:42;;;;;;;1.17;0.70;;;14.50;99.90;;;;;;5024960;28;20452;-78
2021/05/20 08:10:27;;;;;;;1.13;0.67;;;14.50;99.90;;;;;;5020239;28;20457;-78
2021/05/20 08:12:56;;;;;;;0.67;0.60;;;14.50;99.90;;;;;;5023406;28;20499;-77
2021/05/20 08:15:24;;;;;;;0.63;0.60;;;14.50;99.90;;;;;;5023486;28;20467;-78
2021/05/20 08:17:52;;;;;;;1.50;0.60;;;14.30;99.90;;;;;;5026011;28;20481;-78
2021/05/20 08:20:20;;;;;;;0.63;0.63;;;14.40;99.90;;;;;;5030398;28;20985;-79
2021/05/20 08:22:47;;;;;;;0.63;0.60;;;14.40;99.90;;;;;;5058805;28;20482;-78
2021/05/20 08:25:15;;;;;;;0.50;0.50;;;14.50;99.90;;;;;;5022210;28;20491;-78
2021/05/20 08:27:43;;;;;;;1.17;0.70;;;14.50;99.90;;;;;;5022654;28;20461;-77
2021/05/20 08:30:13;;;;;;;0.90;0.73;;;14.60;99.90;;;;;;5025510;28;20577;-77
2021/05/20 08:32:41;;;;;;;6.00;2.17;;;14.60;99.90;;;;;;5023666;28;20853;-77
2021/05/20 08:35:10;;;;;;;0.70;0.60;;;14.50;99.90;;;;;;5025929;28;20536;-80
2021/05/20 08:37:38;;;;;;;1.47;0.93;;;14.70;99.90;;;;;;5021149;28;20488;-78
2021/05/20 08:40:07;;;;;;;1.50;1.10;;;14.60;99.90;;;;;;5025568;28;20465;-79
2021/05/20 08:42:35;;;;;;;1.33;0.80;;;14.80;99.90;;;;;;5020467;28;20480;-78
2021/05/20 08:45:13;;;;;;;1.00;0.77;;;15.00;99.90;;;;;;5036846;28;20484;-77
2021/05/20 08:47:41;;;;;;;0.90;0.70;;;15.10;99.90;;;;;;5027202;28;20456;-79
2021/05/20 08:50:10;;;;;;;1.00;0.90;;;15.20;99.90;;;;;;5028926;28;20585;-78
2021/05/20 08:52:39;;;;;;;0.60;0.60;;;15.30;99.90;;;;;;5022085;28;20509;-76
2021/05/20 08:55:08;;;;;;;2.03;0.90;;;15.30;99.90;;;;;;5021553;28;21038;-80
2021/05/20 08:57:36;;;;;;;1.40;1.10;;;15.30;99.90;;;;;;5021464;28;20472;-79
2021/05/20 09:00:05;;;;;;;1.20;0.80;;;15.50;99.90;;;;;;5024845;28;20447;-79
2021/05/20 09:02:34;;;;;;;0.70;0.70;;;15.50;99.90;;;;;;5023391;28;20534;-78
2021/05/20 09:05:08;;;;;;;0.63;0.63;;;15.60;99.90;;;;;;5024998;28;20497;-74
2021/05/20 09:07:37;;;;;;;0.67;0.60;;;15.70;99.90;;;;;;5022759;28;20848;-79
2021/05/20 09:10:19;;;;;;;1.17;0.67;;;15.70;99.90;;;;;;5024658;28;20847;-79
2021/05/20 09:12:49;;;;;;;0.70;0.67;;;15.70;99.90;;;;;;5022684;28;20550;-78
2021/05/20 09:15:22;;;;;;;0.50;0.50;;;15.60;99.90;;;;;;5028490;28;21022;-79
2021/05/20 09:17:52;;;;;;;1.00;0.90;;;15.60;99.90;;;;;;5041419;28;21093;-80
2021/05/20 09:20:22;;;;;;;0.70;0.50;;;15.80;99.90;;;;;;5026809;28;20960;-78
2021/05/20 09:23:04;;;;;;;0.60;0.60;;;16.00;99.90;;;;;;5020810;28;20483;-79
2021/05/20 09:25:34;;;;;;;1.63;0.80;;;16.10;99.90;;;;;;5020025;28;20943;-80
2021/05/20 09:28:04;;;;;;;0.80;0.73;;;16.20;99.90;;;;;;5027269;28;20440;-78
2021/05/20 09:30:33;;;;;;;2.73;0.70;;;16.20;99.90;;;;;;5027076;28;20499;-78
2021/05/20 09:33:07;;;;;;;0.70;0.60;;;16.20;99.90;;;;;;5021091;28;20568;-78
2021/05/20 09:35:36;;;;;;;0.67;0.63;;;16.30;99.90;;;;;;5020896;28;20460;-79
2021/05/20 09:38:10;;;;;;;0.50;0.50;;;16.30;99.90;;;;;;5019690;28;20480;-79
2021/05/20 09:40:39;;;;;;;0.60;0.60;;;16.40;99.90;;;;;;5017650;28;20967;-73
2021/05/20 09:43:17;;;;;;;0.50;0.50;;;16.50;99.90;;;;;;5019507;28;20464;-75
2021/05/20 09:45:46;;;;;;;0.60;0.60;;;16.50;99.90;;;;;;5018911;28;20473;-75
2021/05/20 09:48:14;;;;;;;0.53;0.53;;;16.60;99.90;;;;;;5019861;28;20452;-76
2021/05/20 09:50:44;;;;;;;0.67;0.67;;;16.70;99.90;;;;;;5020979;28;20466;-74
2021/05/20 09:53:14;;;;;;;1.13;0.50;;;16.70;99.90;;;;;;5020916;28;20509;-74
2021/05/20 09:55:47;;;;;;;0.60;0.60;;;16.80;99.90;;;;;;5048146;28;22934;-75
2021/05/20 09:58:15;;;;;;;0.50;0.50;;;16.80;99.90;;;;;;5017839;28;20500;-76
2021/05/20 10:00:43;;;;;;;0.73;0.73;;;16.90;99.90;;;;;;5020677;28;20453;-77
2021/05/20 10:03:14;;;;;;;0.83;0.60;;;16.90;99.90;;;;;;5020187;28;20484;-75
2021/05/20 10:05:44;;;;;;;0.60;0.57;;;16.80;99.90;;;;;;5017526;28;21231;-75
2021/05/20 10:08:13;;;;;;;0.60;0.60;;;16.70;99.90;;;;;;5020179;28;20472;-74
2021/05/20 10:10:44;;;;;;;1.63;0.80;;;16.70;99.90;;;;;;5015919;28;20528;-78
2021/05/20 10:13:15;;;;;;;0.57;0.57;;;16.60;99.90;;;;;;5021237;28;20477;-76
2021/05/20 10:15:43;;;;;;;0.90;0.53;;;16.50;99.90;;;;;;5016520;28;20961;-78
2021/05/20 10:18:12;;;;;;;1.43;0.70;;;16.50;99.90;;;;;;5015031;28;21023;-78
2021/05/20 10:20:42;;;;;;;1.23;0.90;;;16.40;99.90;;;;;;5018267;28;20483;-77
2021/05/20 10:23:12;;;;;;;1.73;1.20;;;16.20;99.90;;;;;;5019845;28;21287;-78
2021/05/20 10:25:41;;;;;;;3.53;1.10;;;16.10;99.90;;;;;;5020642;28;20449;-77
2021/05/20 10:28:10;;;;;;;0.83;0.83;;;16.00;99.90;;;;;;5025291;28;20487;-76
2021/05/20 10:30:39;;;;;;;0.83;0.80;;;16.00;99.90;;;;;;5016827;28;20462;-78
2021/05/20 10:33:08;;;;;;;1.23;0.90;;;16.00;99.90;;;;;;5022714;28;20888;-77
2021/05/20 10:35:41;;;;;;;1.00;0.60;;;16.10;99.90;;;;;;5020758;28;20452;-78
2021/05/20 10:38:11;;;;;;;1.77;0.60;;;16.20;99.90;;;;;;5022460;28;21198;-79
2021/05/20 10:40:38;;;;;;;1.03;0.50;;;16.20;99.90;;;;;;5019788;28;20459;-78
2021/05/20 10:43:14;;;;;;;0.50;0.50;;;16.30;99.90;;;;;;5017023;28;20481;-80
2021/05/20 10:45:58;;;;;;;0.60;0.60;;;16.40;99.90;;;;;;5022490;28;20448;-79
2021/05/20 10:48:27;;;;;;;0.80;0.40;;;16.50;99.90;;;;;;5055178;28;20455;-79
2021/05/20 10:50:56;;;;;;;0.60;0.60;;;16.60;99.90;;;;;;5020753;28;20514;-75
2021/05/20 10:53:51;;;;;;;0.50;0.50;;;16.60;99.90;;;;;;5019474;28;20839;-76
2021/05/20 10:56:54;;;;;;;0.60;0.60;;;16.50;99.90;;;;;;5020219;28;20463;-76
2021/05/20 10:59:42;;;;;;;0.77;0.60;;;16.50;99.90;;;;;;5018126;28;20452;-78
2021/05/20 11:02:37;;;;;;;1.03;0.60;;;16.40;99.90;;;;;;5018883;28;20488;-78
2021/05/20 11:05:21;;;;;;;0.53;0.53;;;16.40;99.90;;;;;;5019339;28;20984;-76
2021/05/20 11:07:49;;;;;;;1.00;0.50;;;16.30;99.90;;;;;;5022033;28;20464;-74
2021/05/20 11:10:21;;;;;;;0.60;0.60;;;16.30;99.90;;;;;;5019474;28;20456;-76
2021/05/20 11:12:57;;;;;;;0.63;0.63;;;16.40;99.90;;;;;;5022734;28;20518;-78
2021/05/20 11:15:25;;;;;;;2.13;0.70;;;16.40;99.90;;;;;;5035012;28;20464;-77
2021/05/20 11:17:53;;;;;;;0.60;0.60;;;16.40;99.90;;;;;;5018518;28;20508;-78
2021/05/20 11:20:31;;;;;;;0.73;0.70;;;16.40;99.90;;;;;;5028488;28;20584;-77
2021/05/20 11:23:19;;;;;;;0.50;0.50;;;16.50;99.90;;;;;;5030414;28;20476;-79
2021/05/20 11:25:58;;;;;;;0.50;0.50;;;16.50;99.90;;;;;;5063528;28;20459;-78
2021/05/20 11:28:26;;;;;;;0.60;0.50;;;16.40;99.90;;;;;;5031682;28;20452;-79
2021/05/20 11:30:58;;;;;;;0.50;0.50;;;16.50;99.90;;;;;;5023039;28;20464;-78
2021/05/20 11:33:28;;;;;;;1.60;0.73;;;16.50;99.90;;;;;;5021902;28;20476;-78
2021/05/20 11:36:10;;;;;;;0.60;0.60;;;16.60;99.90;;;;;;5024405;28;20458;-76
2021/05/20 11:38:38;;;;;;;0.50;0.50;;;16.80;99.90;;;;;;5058262;28;20484;-77
2021/05/20 11:41:14;;;;;;;0.57;0.57;;;16.90;99.90;;;;;;5026171;28;21039;-78
2021/05/20 11:43:42;;;;;;;1.40;0.60;;;17.00;99.90;;;;;;5027702;28;20491;-78
2021/05/20 11:46:21;;;;;;;0.50;0.50;;;17.00;99.90;;;;;;5030503;28;20461;-76
2021/05/20 11:48:56;;;;;;;1.67;0.60;;;17.10;99.90;;;;;;5032091;28;20450;-77
2021/05/20 11:51:47;;;;;;;0.67;0.50;;;17.20;99.90;;;;;;5026914;28;20465;-77
2021/05/20 11:54:16;;;;;;;0.50;0.50;;;17.30;99.90;;;;;;5027051;28;20512;-78
2021/05/20 11:56:48;;;;;;;0.60;0.60;;;17.30;99.90;;;;;;5025252;28;20465;-79
2021/05/20 11:59:17;;;;;;;0.50;0.50;;;17.30;99.90;;;;;;5026029;28;20484;-79
2021/05/20 12:01:45;;;;;;;0.50;0.50;;;17.30;99.90;;;;;;5023056;28;20861;-79
2021/05/20 12:04:13;;;;;;;0.57;0.57;;;17.20;99.90;;;;;;5036943;28;20455;-78
2021/05/20 12:06:41;;;;;;;0.50;0.50;;;17.00;99.90;;;;;;5019411;28;20851;-78
2021/05/20 12:09:14;;;;;;;0.73;0.50;;;17.00;99.90;;;;;;5023649;28;20488;-76
2021/05/20 12:11:42;;;;;;;0.60;0.60;;;17.00;99.90;;;;;;5022097;28;20461;-78
2021/05/20 12:14:29;;;;;;;0.50;0.50;;;17.00;99.90;;;;;;5034672;28;21528;-79
2021/05/20 12:16:59;;;;;;;0.60;0.60;;;17.00;99.90;;;;;;5024830;28;20464;-79
2021/05/20 12:19:27;;;;;;;1.00;0.50;;;16.90;99.90;;;;;;5039928;28;20474;-78
2021/05/20 12:22:03;;;;;;;0.57;0.57;;;16.90;99.90;;;;;;5025825;28;20898;-78
2021/05/20 12:24:32;;;;;;;0.60;0.60;;;16.90;99.90;;;;;;5026573;28;20511;-79
2021/05/20 12:27:17;;;;;;;0.53;0.50;;;16.90;99.90;;;;;;5025773;28;20481;-79
2021/05/20 12:29:47;;;;;;;4.33;0.60;;;16.90;99.90;;;;;;5039874;28;20458;-78
2021/05/20 12:32:39;;;;;;;0.50;0.50;;;16.70;99.90;;;;;;5021211;28;20483;-80
2021/05/20 12:35:24;;;;;;;0.90;0.60;;;16.60;99.90;;;;;;5018332;28;20549;-79
2021/05/20 12:38:05;;;;;;;1.40;0.70;;;16.60;99.90;;;;;;5025480;28;20470;-78
2021/05/20 12:40:35;;;;;;;0.63;0.50;;;16.70;99.90;;;;;;5021639;28;20523;-76
2021/05/20 12:43:22;;;;;;;1.27;0.60;;;16.70;99.90;;;;;;5020663;28;20518;-77
2021/05/20 12:45:53;;;;;;;1.63;1.53;;;16.60;99.90;;;;;;5022597;28;20490;-74
2021/05/20 12:48:30;;;;;;;0.70;0.60;;;16.50;99.90;;;;;;5019350;28;20472;-75
2021/05/20 12:51:00;;;;;;;2.90;0.63;;;16.50;99.90;;;;;;5022184;28;20532;-75
2021/05/20 12:53:41;;;;;;;1.57;0.70;;;16.40;99.90;;;;;;5023751;28;20469;-75
2021/05/20 12:56:29;;;;;;;2.97;0.70;;;16.40;99.90;;;;;;5020963;28;20511;-74
2021/05/20 12:58:59;;;;;;;0.70;0.60;;;16.40;99.90;;;;;;5016860;28;20482;-75
2021/05/20 13:01:35;;;;;;;0.60;0.60;;;16.60;99.90;;;;;;5020506;28;20453;-75
2021/05/20 13:04:08;;;;;;;0.50;0.50;;;16.70;99.90;;;;;;5022191;28;20457;-76
2021/05/20 13:06:37;;;;;;;1.33;0.70;;;16.80;99.90;;;;;;5023378;28;20461;-74